createdAt,value
2023-01-19T00:01:08.696Z,19.90
2023-01-19T00:03:36.538Z,24.80
2023-01-19T00:06:06.899Z,23.40
2023-01-19T00:08:34.930Z,17.80
2023-01-19T00:11:02.026Z,15.00
2023-01-19T00:13:29.169Z,12.60
2023-01-19T00:15:55.904Z,8.40
2023-01-19T00:18:22.440Z,9.70
2023-01-19T00:20:49.373Z,9.00
2023-01-19T00:23:16.457Z,7.50
2023-01-19T00:25:47.491Z,8.80
2023-01-19T00:30:43.595Z,5.10
2023-01-19T00:33:13.022Z,5.50
2023-01-19T00:35:41.862Z,5.40
2023-01-19T00:38:09.126Z,5.50
2023-01-19T00:40:35.874Z,5.50
2023-01-19T00:43:05.720Z,9.10
2023-01-19T00:45:33.072Z,7.70
2023-01-19T00:48:02.547Z,7.30
2023-01-19T00:50:30.129Z,6.60
2023-01-19T00:53:00.959Z,6.20
2023-01-19T00:57:54.838Z,3.20
2023-01-19T01:00:21.891Z,6.00
2023-01-19T01:02:50.075Z,5.60
2023-01-19T01:05:17.608Z,5.00
2023-01-19T01:07:44.926Z,5.00
2023-01-19T01:10:13.440Z,4.30
2023-01-19T01:12:40.644Z,4.90
2023-01-19T01:15:08.501Z,4.50
2023-01-19T01:17:49.044Z,4.80
2023-01-19T01:20:17.209Z,4.80
2023-01-19T01:22:47.237Z,4.50
2023-01-19T01:25:14.941Z,3.40
2023-01-19T01:27:41.747Z,6.80
2023-01-19T01:30:09.900Z,5.50
2023-01-19T01:32:36.656Z,7.40
2023-01-19T01:35:08.428Z,3.40
2023-01-19T01:37:36.156Z,3.90
2023-01-19T01:40:03.561Z,4.90
2023-01-19T01:42:31.208Z,3.90
2023-01-19T01:45:02.557Z,3.20
2023-01-19T01:47:31.762Z,3.60
2023-01-19T01:50:18.491Z,3.10
2023-01-19T01:53:06.884Z,3.10
2023-01-19T01:55:36.841Z,3.20
2023-01-19T01:58:04.511Z,3.30
2023-01-19T02:00:51.107Z,2.50
2023-01-19T02:03:17.853Z,3.40
2023-01-19T02:05:45.260Z,3.50
2023-01-19T02:08:37.181Z,3.90
2023-01-19T02:11:22.975Z,2.80
2023-01-19T02:13:49.826Z,3.80
2023-01-19T02:16:16.707Z,2.80
2023-01-19T02:18:44.650Z,3.20
2023-01-19T02:21:20.600Z,2.70
2023-01-19T02:23:49.489Z,3.10
2023-01-19T02:26:18.598Z,4.00
2023-01-19T02:28:50.344Z,3.30
2023-01-19T02:31:17.644Z,3.40
2023-01-19T02:33:44.935Z,4.30
2023-01-19T02:36:12.940Z,3.30
2023-01-19T02:38:41.590Z,4.80
2023-01-19T02:41:09.433Z,5.40
2023-01-19T02:43:36.995Z,4.10
2023-01-19T02:46:03.795Z,3.90
2023-01-19T02:48:30.667Z,6.10
2023-01-19T02:51:03.516Z,2.70
2023-01-19T02:53:30.086Z,4.20
2023-01-19T02:55:58.918Z,4.40
2023-01-19T02:58:44.512Z,3.30
2023-01-19T03:01:20.133Z,3.70
2023-01-19T03:03:53.919Z,3.50
2023-01-19T03:06:21.013Z,5.10
2023-01-19T03:08:52.404Z,3.50
2023-01-19T03:11:18.896Z,3.10
2023-01-19T03:13:45.553Z,4.30
2023-01-19T03:16:14.738Z,3.90
2023-01-19T03:18:43.741Z,5.30
2023-01-19T03:21:12.602Z,5.50
2023-01-19T03:23:40.884Z,6.40
2023-01-19T03:26:09.458Z,5.90
2023-01-19T03:28:44.798Z,5.60
2023-01-19T03:31:22.209Z,7.30
2023-01-19T03:43:55.466Z,5.40
2023-01-19T03:46:25.871Z,5.90
2023-01-19T03:48:54.990Z,6.30
2023-01-19T03:51:23.281Z,7.00
2023-01-19T03:53:51.217Z,6.20
2023-01-19T03:56:23.493Z,5.90
2023-01-19T03:58:51.872Z,4.80
2023-01-19T04:01:23.262Z,5.20
2023-01-19T04:03:52.005Z,6.10
2023-01-19T04:06:21.255Z,5.60
2023-01-19T04:08:50.301Z,6.10
2023-01-19T04:11:18.506Z,7.80
2023-01-19T04:13:46.625Z,7.10
2023-01-19T04:16:14.616Z,6.00
2023-01-19T04:18:42.557Z,7.20
2023-01-19T04:21:11.168Z,6.40
2023-01-19T04:23:39.133Z,8.00
2023-01-19T04:26:08.254Z,8.30
2023-01-19T04:28:37.287Z,7.60
2023-01-19T04:31:06.281Z,8.00
2023-01-19T04:33:34.507Z,9.60
2023-01-19T04:36:04.169Z,8.70
2023-01-19T04:38:32.104Z,8.60
2023-01-19T04:40:59.960Z,6.80
2023-01-19T04:43:28.061Z,8.30
2023-01-19T04:45:55.866Z,11.50
2023-01-19T04:48:24.013Z,8.80
2023-01-19T04:50:52.471Z,15.90
2023-01-19T04:56:55.949Z,7.00
2023-01-19T04:59:22.682Z,8.40
2023-01-19T05:01:49.349Z,8.30
2023-01-19T05:04:16.101Z,9.30
2023-01-19T05:06:42.843Z,7.80
2023-01-19T05:09:12.505Z,6.70
2023-01-19T05:11:39.433Z,6.00
2023-01-19T05:14:06.429Z,6.70
2023-01-19T05:16:34.076Z,7.30
2023-01-19T05:19:00.760Z,6.10
2023-01-19T05:21:27.856Z,50.50
2023-01-19T05:23:54.515Z,18.20
2023-01-19T05:26:20.991Z,10.20
2023-01-19T05:28:48.091Z,6.80
2023-01-19T05:31:14.994Z,7.70
2023-01-19T05:33:42.045Z,15.00
2023-01-19T05:36:11.710Z,20.20
2023-01-19T05:38:38.585Z,20.90
2023-01-19T05:41:05.361Z,35.10
2023-01-19T05:43:32.154Z,16.80
2023-01-19T05:45:59.023Z,25.70
2023-01-19T05:48:25.862Z,19.90
2023-01-19T05:50:56.517Z,23.10
2023-01-19T05:53:23.175Z,32.00
2023-01-19T05:55:50.003Z,29.50
2023-01-19T05:58:16.705Z,28.10
2023-01-19T06:00:43.386Z,15.60
2023-01-19T06:03:10.244Z,14.10
2023-01-19T06:05:38.815Z,17.20
2023-01-19T06:08:05.628Z,15.30
2023-01-19T06:10:32.418Z,14.70
2023-01-19T06:12:59.725Z,71.30
2023-01-19T06:15:26.961Z,52.60
2023-01-19T06:17:53.773Z,41.70
2023-01-19T06:20:20.687Z,35.80
2023-01-19T06:22:47.426Z,34.30
2023-01-19T06:25:14.282Z,26.70
2023-01-19T06:27:44.781Z,16.20
2023-01-19T06:30:12.200Z,19.10
2023-01-19T06:32:38.820Z,20.90
2023-01-19T06:35:07.165Z,14.40
2023-01-19T06:37:39.572Z,26.70
2023-01-19T06:40:06.907Z,12.10
2023-01-19T06:42:33.884Z,14.30
2023-01-19T06:45:00.530Z,19.20
2023-01-19T06:47:27.194Z,17.70
2023-01-19T06:49:53.718Z,13.90
2023-01-19T06:52:20.501Z,16.20
2023-01-19T06:54:47.014Z,28.40
2023-01-19T06:57:14.021Z,92.20
2023-01-19T06:59:40.709Z,23.40
2023-01-19T07:02:26.357Z,44.40
2023-01-19T07:04:56.089Z,86.70
2023-01-19T07:07:22.858Z,37.10
2023-01-19T07:09:49.819Z,35.40
2023-01-19T07:12:20.828Z,33.00
2023-01-19T07:14:48.814Z,22.20
2023-01-19T07:17:15.346Z,21.40
2023-01-19T07:19:42.029Z,17.70
2023-01-19T07:22:08.575Z,17.30
2023-01-19T07:24:37.400Z,27.00
2023-01-19T07:27:04.761Z,24.00
2023-01-19T07:29:31.598Z,22.20
2023-01-19T07:31:58.311Z,16.50
2023-01-19T07:34:25.084Z,13.10
2023-01-19T07:36:51.565Z,27.90
2023-01-19T07:39:18.202Z,62.50
2023-01-19T07:41:44.793Z,42.30
2023-01-19T07:44:11.625Z,20.40
2023-01-19T07:46:38.432Z,18.80
2023-01-19T07:49:05.311Z,20.60
2023-01-19T07:51:31.894Z,10.40
2023-01-19T07:53:58.696Z,17.10
2023-01-19T07:56:27.203Z,13.70
2023-01-19T07:58:54.121Z,18.10
2023-01-19T08:01:21.012Z,16.60
2023-01-19T08:03:48.440Z,52.00
2023-01-19T08:06:22.542Z,25.30
2023-01-19T08:08:49.799Z,13.40
2023-01-19T08:11:16.597Z,17.10
2023-01-19T08:13:43.229Z,31.10
2023-01-19T08:16:10.229Z,35.20
2023-01-19T08:18:39.378Z,41.20
2023-01-19T08:21:06.049Z,26.60
2023-01-19T08:23:33.007Z,19.30
2023-01-19T08:25:59.671Z,18.10
2023-01-19T08:28:38.071Z,29.90
2023-01-19T08:31:18.508Z,19.10
2023-01-19T08:33:46.585Z,13.20
2023-01-19T08:36:15.793Z,21.90
2023-01-19T08:38:44.353Z,15.50
2023-01-19T08:41:11.410Z,18.00
2023-01-19T08:43:38.145Z,14.50
2023-01-19T08:46:05.036Z,13.10
2023-01-19T08:48:31.832Z,23.90
2023-01-19T08:51:01.599Z,21.10
2023-01-19T08:53:30.512Z,35.40
2023-01-19T08:56:00.598Z,31.70
2023-01-19T08:58:30.239Z,13.20
2023-01-19T09:00:59.203Z,20.30
2023-01-19T09:03:25.777Z,13.20
2023-01-19T09:05:52.738Z,21.40
2023-01-19T09:08:32.047Z,17.10
2023-01-19T09:11:02.371Z,23.80
2023-01-19T09:13:29.355Z,27.00
2023-01-19T09:16:01.342Z,15.50
2023-01-19T09:18:30.812Z,24.60
2023-01-19T09:20:57.462Z,12.00
2023-01-19T09:23:24.881Z,63.90
2023-01-19T09:25:56.254Z,13.60
2023-01-19T09:28:23.094Z,8.70
2023-01-19T09:30:50.372Z,13.00
2023-01-19T09:33:19.444Z,10.60
2023-01-19T09:35:47.734Z,6.90
2023-01-19T09:38:18.767Z,19.20
2023-01-19T09:40:52.077Z,19.80
2023-01-19T09:43:27.632Z,16.00
2023-01-19T09:45:58.106Z,10.90
2023-01-19T09:50:55.395Z,8.80
2023-01-19T09:53:39.988Z,12.80
2023-01-19T09:56:14.513Z,17.20
2023-01-19T09:58:41.743Z,14.50
2023-01-19T10:01:40.150Z,14.80
2023-01-19T10:04:34.822Z,13.70
2023-01-19T10:07:21.009Z,12.70
2023-01-19T10:10:06.717Z,10.80
2023-01-19T10:12:50.341Z,12.90
2023-01-19T10:15:36.033Z,8.70
2023-01-19T10:18:21.315Z,7.60
2023-01-19T10:21:04.582Z,9.50
2023-01-19T10:23:41.718Z,9.30
2023-01-19T10:26:24.034Z,23.90
2023-01-19T10:28:53.817Z,11.80
2023-01-19T10:31:22.755Z,17.70
2023-01-19T10:33:51.896Z,38.30
2023-01-19T10:36:20.314Z,11.20
2023-01-19T10:38:57.471Z,6.50
2023-01-19T10:41:30.144Z,6.20
2023-01-19T10:44:11.336Z,9.30
2023-01-19T10:46:49.897Z,6.90
2023-01-19T10:49:27.209Z,5.00
2023-01-19T10:51:54.628Z,6.90
2023-01-19T10:54:21.720Z,6.90
2023-01-19T10:56:58.597Z,8.30
2023-01-19T10:59:33.031Z,5.60
2023-01-19T11:02:15.600Z,6.70
2023-01-19T11:04:50.061Z,6.80
2023-01-19T11:07:16.887Z,5.00
2023-01-19T11:09:43.699Z,5.90
2023-01-19T11:12:19.914Z,5.20
2023-01-19T11:14:48.306Z,5.80
2023-01-19T11:17:19.448Z,3.50
2023-01-19T11:19:59.632Z,5.30
2023-01-19T11:22:28.311Z,4.80
2023-01-19T11:25:01.267Z,3.70
2023-01-19T11:27:28.932Z,4.30
2023-01-19T11:30:01.646Z,3.80
2023-01-19T11:32:28.567Z,6.00
2023-01-19T11:38:40.067Z,5.10
2023-01-19T11:41:13.356Z,4.30
2023-01-19T11:43:49.233Z,4.80
2023-01-19T11:46:29.867Z,4.70
2023-01-19T11:49:01.449Z,5.20
2023-01-19T11:51:36.840Z,8.20
2023-01-19T11:54:08.291Z,7.90
2023-01-19T11:56:35.559Z,4.70
2023-01-19T11:59:04.309Z,4.60
2023-01-19T12:01:38.536Z,7.10
2023-01-19T12:04:24.331Z,6.70
2023-01-19T12:06:57.270Z,4.80
2023-01-19T12:09:53.035Z,5.40
2023-01-19T12:12:39.956Z,6.70
2023-01-19T12:15:45.535Z,5.90
2023-01-19T12:18:17.913Z,5.10
2023-01-19T12:20:50.211Z,6.90
2023-01-19T12:23:40.184Z,12.60
2023-01-19T12:26:27.772Z,22.40
2023-01-19T12:29:00.540Z,13.70
2023-01-19T12:31:27.839Z,13.90
2023-01-19T12:33:57.951Z,8.10
2023-01-19T12:36:34.805Z,11.00
2023-01-19T12:39:06.571Z,9.30
2023-01-19T12:41:36.471Z,10.00
2023-01-19T12:44:13.942Z,10.00
2023-01-19T12:46:42.012Z,9.40
2023-01-19T12:49:20.270Z,6.90
2023-01-19T12:51:47.859Z,5.30
2023-01-19T12:54:40.912Z,7.40
2023-01-19T12:57:19.860Z,7.20
2023-01-19T12:59:46.969Z,6.10
2023-01-19T13:02:19.854Z,7.40
2023-01-19T13:05:05.842Z,7.60
2023-01-19T13:07:51.148Z,10.80
2023-01-19T13:10:36.895Z,7.70
2023-01-19T13:13:27.996Z,48.40
2023-01-19T13:16:01.841Z,8.30
2023-01-19T13:18:39.540Z,10.50
2023-01-19T13:21:07.596Z,12.80
2023-01-19T13:23:49.376Z,15.00
2023-01-19T13:26:17.665Z,12.40
2023-01-19T13:28:48.350Z,8.40
2023-01-19T13:31:35.390Z,10.90
2023-01-19T13:34:03.009Z,23.10
2023-01-19T13:36:34.385Z,17.50
2023-01-19T13:39:04.113Z,20.50
2023-01-19T13:41:35.061Z,18.40
2023-01-19T13:44:04.467Z,28.50
2023-01-19T13:46:32.901Z,65.10
2023-01-19T13:49:02.024Z,24.10
2023-01-19T13:52:12.493Z,9.40
2023-01-19T13:54:54.336Z,28.30
2023-01-19T13:57:28.451Z,21.10
2023-01-19T14:00:01.708Z,14.80
2023-01-19T14:02:28.712Z,12.60
2023-01-19T14:04:56.726Z,11.10
2023-01-19T14:07:26.754Z,11.50
2023-01-19T14:10:04.308Z,9.40
2023-01-19T14:12:35.530Z,31.50
2023-01-19T14:15:10.628Z,27.50
2023-01-19T14:17:37.529Z,21.40
2023-01-19T14:20:26.754Z,14.20
2023-01-19T14:22:53.624Z,13.00
2023-01-19T14:25:30.491Z,15.50
2023-01-19T14:28:18.333Z,25.70
2023-01-19T14:30:55.552Z,17.30
2023-01-19T14:33:43.077Z,12.50
2023-01-19T14:36:17.876Z,18.10
2023-01-19T14:38:49.449Z,15.60
2023-01-19T14:41:40.540Z,21.20
2023-01-19T14:44:19.424Z,19.40
2023-01-19T14:46:47.499Z,20.20
2023-01-19T14:49:28.573Z,56.70
2023-01-19T14:51:58.754Z,41.90
2023-01-19T14:54:31.779Z,35.00
2023-01-19T14:57:01.267Z,28.40
2023-01-19T14:59:31.602Z,111.70
2023-01-19T15:01:59.269Z,45.50
2023-01-19T15:04:26.415Z,36.30
2023-01-19T15:06:54.587Z,21.10
2023-01-19T15:09:21.578Z,25.10
2023-01-19T15:11:52.069Z,20.60
2023-01-19T15:14:20.759Z,29.50
2023-01-19T15:16:47.724Z,17.40
2023-01-19T15:19:15.628Z,38.10
2023-01-19T15:21:42.729Z,36.00
2023-01-19T15:24:10.270Z,34.50
2023-01-19T15:26:38.064Z,37.90
2023-01-19T15:29:38.065Z,46.80
2023-01-19T15:32:04.903Z,26.80
2023-01-19T15:34:37.503Z,29.00
2023-01-19T15:37:17.245Z,29.40
2023-01-19T15:39:44.285Z,36.70
2023-01-19T15:42:24.438Z,57.30
2023-01-19T15:44:54.766Z,46.30
2023-01-19T15:47:21.594Z,40.70
2023-01-19T15:49:49.563Z,43.60
2023-01-19T15:52:21.628Z,34.80
2023-01-19T15:54:53.704Z,30.20
2023-01-19T15:57:20.741Z,36.90
2023-01-19T15:59:47.997Z,39.20
2023-01-19T16:02:23.760Z,45.70
2023-01-19T16:04:53.439Z,45.50
2023-01-19T16:07:33.573Z,97.30
2023-01-19T16:10:13.010Z,154.10
2023-01-19T16:12:47.088Z,85.90
2023-01-19T16:17:48.625Z,174.70
2023-01-19T16:20:27.575Z,164.00
2023-01-19T16:23:14.579Z,130.90
2023-01-19T16:25:42.642Z,99.30
2023-01-19T16:28:10.093Z,151.00
2023-01-19T16:30:39.770Z,63.50
2023-01-19T16:33:07.824Z,63.60
2023-01-19T16:35:35.027Z,99.80
2023-01-19T16:38:01.883Z,54.40
2023-01-19T16:40:31.508Z,49.40
2023-01-19T16:42:58.525Z,48.80
2023-01-19T16:45:25.469Z,125.40
2023-01-19T16:47:54.052Z,59.50
2023-01-19T16:50:20.998Z,170.70
2023-01-19T16:52:50.098Z,151.00
2023-01-19T16:55:28.405Z,138.80
2023-01-19T16:57:55.256Z,131.50
2023-01-19T17:00:35.195Z,112.20
2023-01-19T17:03:02.050Z,92.10
2023-01-19T17:05:29.231Z,117.00
2023-01-19T17:07:59.031Z,96.20
2023-01-19T17:10:46.163Z,107.30
2023-01-19T17:13:23.406Z,235.60
2023-01-19T17:15:57.485Z,340.50
2023-01-19T17:18:24.920Z,196.50
2023-01-19T17:20:54.686Z,132.00
2023-01-19T17:23:22.024Z,95.10
2023-01-19T17:26:12.236Z,101.80
2023-01-19T17:28:39.626Z,111.40
2023-01-19T17:31:10.285Z,85.80
2023-01-19T17:33:43.041Z,81.10
2023-01-19T17:36:13.697Z,125.20
2023-01-19T17:38:41.218Z,106.60
2023-01-19T17:41:18.339Z,93.80
2023-01-19T17:43:49.854Z,134.40
2023-01-19T17:46:29.692Z,151.10
2023-01-19T17:49:01.047Z,139.80
2023-01-19T17:51:31.047Z,131.40
2023-01-19T17:53:58.227Z,120.70
2023-01-19T17:56:28.778Z,92.70
2023-01-19T17:58:58.530Z,88.70
2023-01-19T18:01:33.071Z,83.60
2023-01-19T18:04:02.042Z,111.10
2023-01-19T18:06:28.831Z,178.00
2023-01-19T18:09:01.071Z,147.80
2023-01-19T18:11:27.897Z,130.00
2023-01-19T18:13:54.638Z,101.10
2023-01-19T18:16:23.675Z,73.90
2023-01-19T18:18:57.948Z,71.70
2023-01-19T18:21:33.902Z,76.50
2023-01-19T18:24:02.430Z,83.20
2023-01-19T18:26:44.661Z,45.70
2023-01-19T18:29:11.544Z,45.00
2023-01-19T18:31:49.556Z,47.80
2023-01-19T18:34:19.380Z,193.40
2023-01-19T18:36:48.860Z,203.30
2023-01-19T18:39:15.480Z,214.90
2023-01-19T18:41:44.717Z,196.80
2023-01-19T18:44:14.458Z,168.40
2023-01-19T18:46:41.387Z,160.90
2023-01-19T18:49:09.050Z,150.50
2023-01-19T18:51:39.954Z,94.40
2023-01-19T18:56:33.346Z,78.70
2023-01-19T18:59:01.263Z,54.40
2023-01-19T19:01:32.411Z,249.00
2023-01-19T19:03:59.656Z,76.80
2023-01-19T19:06:29.405Z,102.50
2023-01-19T19:08:58.496Z,107.10
2023-01-19T19:11:28.311Z,110.70
2023-01-19T19:14:00.567Z,105.00
2023-01-19T19:16:28.167Z,108.60
2023-01-19T19:18:58.558Z,87.30
2023-01-19T19:21:25.219Z,94.20
2023-01-19T19:24:01.555Z,193.80
2023-01-19T19:26:28.898Z,351.00
2023-01-19T19:28:55.768Z,220.70
2023-01-19T19:31:24.913Z,130.20
2023-01-19T19:33:52.015Z,131.20
2023-01-19T19:36:19.452Z,111.40
2023-01-19T19:38:46.973Z,110.50
2023-01-19T19:41:18.872Z,133.20
2023-01-19T19:43:45.949Z,77.30
2023-01-19T19:46:14.125Z,64.30
2023-01-19T19:48:43.447Z,51.10
2023-01-19T19:51:23.145Z,40.50
2023-01-19T19:53:51.648Z,40.80
2023-01-19T19:56:20.432Z,37.20
2023-01-19T19:58:47.412Z,30.70
2023-01-19T20:01:18.509Z,36.70
2023-01-19T20:03:45.581Z,39.60
2023-01-19T20:06:17.444Z,36.60
2023-01-19T20:08:44.388Z,31.90
2023-01-19T20:11:18.167Z,34.50
2023-01-19T20:13:46.899Z,34.50
2023-01-19T20:16:15.268Z,26.30
2023-01-19T20:19:05.868Z,31.90
2023-01-19T20:21:43.741Z,31.00
2023-01-19T20:24:17.049Z,30.90
2023-01-19T20:26:46.223Z,29.20
2023-01-19T20:29:40.687Z,37.30
2023-01-19T20:32:07.566Z,41.10
2023-01-19T20:34:37.851Z,57.70
2023-01-19T20:37:06.451Z,78.60
2023-01-19T20:39:34.633Z,60.70
2023-01-19T20:42:01.517Z,55.80
2023-01-19T20:44:40.004Z,52.30
2023-01-19T20:47:08.682Z,57.70
2023-01-19T20:49:38.484Z,51.80
2023-01-19T20:52:08.582Z,55.30
2023-01-19T20:58:11.701Z,53.50
2023-01-19T21:00:40.141Z,54.80
2023-01-19T21:03:07.195Z,70.00
2023-01-19T21:05:37.290Z,54.80
2023-01-19T21:08:05.108Z,72.70
2023-01-19T21:10:34.141Z,59.60
2023-01-19T21:13:01.854Z,38.70
2023-01-19T21:15:28.729Z,34.10
2023-01-19T21:17:56.661Z,34.10
2023-01-19T21:20:32.367Z,35.70
2023-01-19T21:22:59.183Z,38.40
2023-01-19T21:25:26.117Z,36.80
2023-01-19T21:27:52.916Z,33.40
2023-01-19T21:30:19.769Z,28.80
2023-01-19T21:32:49.182Z,32.20
2023-01-19T21:35:23.555Z,26.40
2023-01-19T21:37:50.171Z,28.30
2023-01-19T21:40:17.234Z,24.70
2023-01-19T21:42:46.475Z,32.70
2023-01-19T21:45:13.485Z,23.40
2023-01-19T21:47:49.758Z,22.60
2023-01-19T21:50:19.574Z,25.70
2023-01-19T21:52:46.334Z,21.20
2023-01-19T21:55:16.354Z,18.60
2023-01-19T21:57:43.526Z,20.20
2023-01-19T22:00:13.281Z,21.00
2023-01-19T22:02:58.615Z,20.40
2023-01-19T22:05:29.930Z,20.30
2023-01-19T22:07:56.906Z,21.20
2023-01-19T22:10:23.746Z,26.80
2023-01-19T22:12:50.335Z,22.80
2023-01-19T22:15:19.517Z,18.60
2023-01-19T22:17:46.185Z,26.70
2023-01-19T22:20:13.218Z,28.60
2023-01-19T22:22:39.985Z,21.50
2023-01-19T22:25:06.573Z,24.40
2023-01-19T22:27:33.309Z,24.40
2023-01-19T22:30:00.235Z,21.20
2023-01-19T22:32:27.218Z,21.70
2023-01-19T22:35:14.735Z,41.70
2023-01-19T22:37:41.721Z,39.10
2023-01-19T22:40:09.085Z,57.80
2023-01-19T22:42:36.098Z,74.90
2023-01-19T22:45:02.930Z,48.40
2023-01-19T22:47:32.344Z,65.60
2023-01-19T22:49:59.014Z,58.60
2023-01-19T22:52:28.019Z,115.50
2023-01-19T22:54:57.690Z,52.20
2023-01-19T22:57:24.449Z,43.10
2023-01-19T22:59:51.164Z,38.30
2023-01-19T23:02:19.790Z,31.80
2023-01-19T23:04:47.327Z,36.40
2023-01-19T23:07:13.999Z,35.80
2023-01-19T23:09:44.892Z,34.40
2023-01-19T23:12:11.496Z,37.50
2023-01-19T23:14:38.479Z,39.90
2023-01-19T23:17:07.886Z,28.40
2023-01-19T23:19:37.069Z,31.40
2023-01-19T23:22:04.020Z,42.80
2023-01-19T23:24:33.196Z,41.20
2023-01-19T23:27:02.872Z,40.30
2023-01-19T23:29:32.047Z,31.10
2023-01-19T23:31:58.758Z,35.10
2023-01-19T23:34:28.717Z,28.40
2023-01-19T23:36:57.793Z,28.90
2023-01-19T23:39:24.629Z,26.80
2023-01-19T23:42:14.802Z,24.00
2023-01-19T23:44:46.336Z,24.50
2023-01-19T23:47:13.264Z,22.40
2023-01-19T23:49:40.112Z,18.80
2023-01-19T23:52:09.958Z,21.20
2023-01-19T23:54:36.854Z,27.70
2023-01-19T23:57:03.962Z,31.80
2023-01-19T23:59:32.930Z,30.00
